sensor_id;sensor_type;location;lat;lon;timestamp;temperature;humidity
20957;DHT22;10637;47.970;7.830;2023-07-13T00:04:36;22.10;99.90
20957;DHT22;10637;47.970;7.830;2023-07-13T00:09:38;22.00;99.90
20957;DHT22;10637;47.970;7.830;2023-07-13T00:14:40;21.70;99.90
20957;DHT22;10637;47.970;7.830;2023-07-13T00:19:41;21.80;99.90
20957;DHT22;10637;47.970;7.830;2023-07-13T00:24:44;22.00;99.90
20957;DHT22;10637;47.970;7.830;2023-07-13T00:29:46;22.20;99.90
20957;DHT22;10637;47.970;7.830;2023-07-13T00:34:47;22.10;99.90
20957;DHT22;10637;47.970;7.830;2023-07-13T00:39:49;21.60;99.90
20957;DHT22;10637;47.970;7.830;2023-07-13T00:50:23;21.90;99.90
20957;DHT22;10637;47.970;7.830;2023-07-13T00:55:25;21.30;99.90
20957;DHT22;10637;47.970;7.830;2023-07-13T01:00:28;21.50;99.90
20957;DHT22;10637;47.970;7.830;2023-07-13T01:05:33;21.50;99.90
20957;DHT22;10637;47.970;7.830;2023-07-13T01:10:35;21.30;99.90
20957;DHT22;10637;47.970;7.830;2023-07-13T01:15:46;21.30;99.90
20957;DHT22;10637;47.970;7.830;2023-07-13T01:25:58;20.80;99.90
20957;DHT22;10637;47.970;7.830;2023-07-13T01:31:00;20.70;99.90
20957;DHT22;10637;47.970;7.830;2023-07-13T01:36:02;20.60;99.90
20957;DHT22;10637;47.970;7.830;2023-07-13T01:41:03;20.60;99.90
20957;DHT22;10637;47.970;7.830;2023-07-13T01:46:05;20.60;99.90
20957;DHT22;10637;47.970;7.830;2023-07-13T01:51:23;20.70;99.90
20957;DHT22;10637;47.970;7.830;2023-07-13T01:56:25;20.60;99.90
20957;DHT22;10637;47.970;7.830;2023-07-13T02:01:27;20.50;99.90
20957;DHT22;10637;47.970;7.830;2023-07-13T02:06:29;20.50;99.90
20957;DHT22;10637;47.970;7.830;2023-07-13T02:11:32;20.50;99.90
20957;DHT22;10637;47.970;7.830;2023-07-13T02:16:34;20.30;99.90
20957;DHT22;10637;47.970;7.830;2023-07-13T02:21:36;20.60;99.90
20957;DHT22;10637;47.970;7.830;2023-07-13T02:26:38;20.40;99.90
20957;DHT22;10637;47.970;7.830;2023-07-13T02:31:40;20.30;99.90
20957;DHT22;10637;47.970;7.830;2023-07-13T02:36:42;20.10;99.90
20957;DHT22;10637;47.970;7.830;2023-07-13T02:41:44;19.90;99.90
20957;DHT22;10637;47.970;7.830;2023-07-13T02:46:45;20.00;99.90
20957;DHT22;10637;47.970;7.830;2023-07-13T02:51:47;20.40;99.90
20957;DHT22;10637;47.970;7.830;2023-07-13T02:56:49;20.50;99.90
20957;DHT22;10637;47.970;7.830;2023-07-13T03:01:51;20.60;99.90
20957;DHT22;10637;47.970;7.830;2023-07-13T03:06:53;20.30;99.90
20957;DHT22;10637;47.970;7.830;2023-07-13T03:11:59;20.00;99.90
20957;DHT22;10637;47.970;7.830;2023-07-13T03:17:01;20.00;99.90
20957;DHT22;10637;47.970;7.830;2023-07-13T03:22:02;20.10;99.90
20957;DHT22;10637;47.970;7.830;2023-07-13T03:27:05;20.10;99.90
20957;DHT22;10637;47.970;7.830;2023-07-13T03:32:08;19.80;99.90
20957;DHT22;10637;47.970;7.830;2023-07-13T03:37:10;20.00;99.90
20957;DHT22;10637;47.970;7.830;2023-07-13T03:42:11;19.90;99.90
20957;DHT22;10637;47.970;7.830;2023-07-13T03:47:13;20.00;99.90
20957;DHT22;10637;47.970;7.830;2023-07-13T03:52:15;19.40;99.90
20957;DHT22;10637;47.970;7.830;2023-07-13T03:57:18;19.70;99.90
20957;DHT22;10637;47.970;7.830;2023-07-13T04:02:20;19.50;99.90
20957;DHT22;10637;47.970;7.830;2023-07-13T04:07:22;19.70;99.90
20957;DHT22;10637;47.970;7.830;2023-07-13T04:12:24;19.60;99.90
20957;DHT22;10637;47.970;7.830;2023-07-13T04:17:25;19.80;99.90
20957;DHT22;10637;47.970;7.830;2023-07-13T04:22:27;19.50;99.90
20957;DHT22;10637;47.970;7.830;2023-07-13T04:27:29;19.50;99.90
20957;DHT22;10637;47.970;7.830;2023-07-13T04:32:31;19.80;99.90
20957;DHT22;10637;47.970;7.830;2023-07-13T04:37:33;20.10;99.90
20957;DHT22;10637;47.970;7.830;2023-07-13T04:42:36;19.50;99.90
20957;DHT22;10637;47.970;7.830;2023-07-13T04:47:38;20.10;99.90
20957;DHT22;10637;47.970;7.830;2023-07-13T04:52:41;20.10;99.90
20957;DHT22;10637;47.970;7.830;2023-07-13T04:57:43;20.70;99.90
20957;DHT22;10637;47.970;7.830;2023-07-13T06:57:46;26.40;99.90
20957;DHT22;10637;47.970;7.830;2023-07-13T07:02:54;25.90;99.90
20957;DHT22;10637;47.970;7.830;2023-07-13T07:07:56;25.80;99.90
20957;DHT22;10637;47.970;7.830;2023-07-13T07:12:57;25.90;99.90
20957;DHT22;10637;47.970;7.830;2023-07-13T07:17:59;26.00;99.90
20957;DHT22;10637;47.970;7.830;2023-07-13T07:23:01;26.00;99.90
20957;DHT22;10637;47.970;7.830;2023-07-13T07:28:03;26.00;99.90
20957;DHT22;10637;47.970;7.830;2023-07-13T07:33:08;26.30;99.90
20957;DHT22;10637;47.970;7.830;2023-07-13T07:38:10;26.40;99.90
20957;DHT22;10637;47.970;7.830;2023-07-13T07:43:12;26.50;99.90
20957;DHT22;10637;47.970;7.830;2023-07-13T07:48:14;26.40;99.90
20957;DHT22;10637;47.970;7.830;2023-07-13T07:53:16;26.50;99.90
20957;DHT22;10637;47.970;7.830;2023-07-13T07:58:18;26.60;99.90
20957;DHT22;10637;47.970;7.830;2023-07-13T08:03:39;26.90;99.90
20957;DHT22;10637;47.970;7.830;2023-07-13T08:08:44;27.10;99.90
20957;DHT22;10637;47.970;7.830;2023-07-13T08:13:46;27.20;99.90
20957;DHT22;10637;47.970;7.830;2023-07-13T08:18:48;27.00;99.90
20957;DHT22;10637;47.970;7.830;2023-07-13T08:23:50;26.50;99.90
20957;DHT22;10637;47.970;7.830;2023-07-13T08:28:52;26.60;99.90
20957;DHT22;10637;47.970;7.830;2023-07-13T08:33:53;27.00;99.90
20957;DHT22;10637;47.970;7.830;2023-07-13T08:38:55;27.30;99.90
20957;DHT22;10637;47.970;7.830;2023-07-13T08:43:59;27.20;99.90
20957;DHT22;10637;47.970;7.830;2023-07-13T08:49:12;27.40;99.90
20957;DHT22;10637;47.970;7.830;2023-07-13T08:54:37;27.30;99.90
20957;DHT22;10637;47.970;7.830;2023-07-13T08:59:41;27.60;99.90
20957;DHT22;10637;47.970;7.830;2023-07-13T09:04:48;28.00;98.30
20957;DHT22;10637;47.970;7.830;2023-07-13T09:15:28;28.50;99.00
20957;DHT22;10637;47.970;7.830;2023-07-13T09:20:42;28.70;97.90
20957;DHT22;10637;47.970;7.830;2023-07-13T09:25:49;28.40;97.90
20957;DHT22;10637;47.970;7.830;2023-07-13T09:31:20;29.10;96.70
20957;DHT22;10637;47.970;7.830;2023-07-13T09:36:32;28.90;95.30
20957;DHT22;10637;47.970;7.830;2023-07-13T09:47:22;29.30;96.60
20957;DHT22;10637;47.970;7.830;2023-07-13T09:52:26;29.80;96.20
20957;DHT22;10637;47.970;7.830;2023-07-13T09:57:29;30.40;96.00
20957;DHT22;10637;47.970;7.830;2023-07-13T10:08:23;29.50;95.90
20957;DHT22;10637;47.970;7.830;2023-07-13T10:13:32;29.90;94.40
20957;DHT22;10637;47.970;7.830;2023-07-13T10:19:02;30.30;94.60
20957;DHT22;10637;47.970;7.830;2023-07-13T10:29:20;30.60;93.10
20957;DHT22;10637;47.970;7.830;2023-07-13T10:34:24;29.80;92.80
20957;DHT22;10637;47.970;7.830;2023-07-13T10:39:28;29.60;93.90
20957;DHT22;10637;47.970;7.830;2023-07-13T10:44:32;30.20;91.10
20957;DHT22;10637;47.970;7.830;2023-07-13T10:49:36;30.10;93.20
20957;DHT22;10637;47.970;7.830;2023-07-13T10:54:38;30.40;90.80
20957;DHT22;10637;47.970;7.830;2023-07-13T10:59:40;30.20;88.70
20957;DHT22;10637;47.970;7.830;2023-07-13T11:04:45;30.40;92.40
20957;DHT22;10637;47.970;7.830;2023-07-13T11:09:55;30.70;92.30
20957;DHT22;10637;47.970;7.830;2023-07-13T11:15:06;31.00;91.50
20957;DHT22;10637;47.970;7.830;2023-07-13T11:25:30;30.80;90.60
20957;DHT22;10637;47.970;7.830;2023-07-13T11:30:36;31.40;91.50
20957;DHT22;10637;47.970;7.830;2023-07-13T11:35:46;31.80;91.00
20957;DHT22;10637;47.970;7.830;2023-07-13T11:40:51;32.00;89.70
20957;DHT22;10637;47.970;7.830;2023-07-13T11:45:57;30.90;83.90
20957;DHT22;10637;47.970;7.830;2023-07-13T11:51:03;30.80;89.40
20957;DHT22;10637;47.970;7.830;2023-07-13T11:56:06;30.70;87.30
20957;DHT22;10637;47.970;7.830;2023-07-13T12:01:23;29.40;86.80
20957;DHT22;10637;47.970;7.830;2023-07-13T12:06:31;28.60;92.10
20957;DHT22;10637;47.970;7.830;2023-07-13T12:11:41;29.80;88.00
20957;DHT22;10637;47.970;7.830;2023-07-13T12:16:46;30.40;92.40
20957;DHT22;10637;47.970;7.830;2023-07-13T12:21:49;31.10;85.40
20957;DHT22;10637;47.970;7.830;2023-07-13T12:26:54;30.20;85.70
20957;DHT22;10637;47.970;7.830;2023-07-13T12:31:57;29.10;88.10
20957;DHT22;10637;47.970;7.830;2023-07-13T12:37:01;29.00;88.30
20957;DHT22;10637;47.970;7.830;2023-07-13T12:42:25;28.20;89.10
20957;DHT22;10637;47.970;7.830;2023-07-13T12:47:30;30.00;90.50
20957;DHT22;10637;47.970;7.830;2023-07-13T12:52:34;28.60;86.50
20957;DHT22;10637;47.970;7.830;2023-07-13T12:57:41;28.20;90.40
20957;DHT22;10637;47.970;7.830;2023-07-13T13:02:49;29.00;88.00
20957;DHT22;10637;47.970;7.830;2023-07-13T13:07:51;29.60;90.90
20957;DHT22;10637;47.970;7.830;2023-07-13T13:12:53;30.40;88.80
20957;DHT22;10637;47.970;7.830;2023-07-13T13:17:56;31.30;87.90
20957;DHT22;10637;47.970;7.830;2023-07-13T13:22:59;31.20;90.10
20957;DHT22;10637;47.970;7.830;2023-07-13T13:28:01;30.00;91.60
20957;DHT22;10637;47.970;7.830;2023-07-13T13:33:08;29.50;83.80
20957;DHT22;10637;47.970;7.830;2023-07-13T13:43:24;29.40;86.60
20957;DHT22;10637;47.970;7.830;2023-07-13T13:48:34;29.30;89.50
20957;DHT22;10637;47.970;7.830;2023-07-13T13:53:37;30.30;89.90
20957;DHT22;10637;47.970;7.830;2023-07-13T13:58:40;29.60;90.70
20957;DHT22;10637;47.970;7.830;2023-07-13T14:03:42;29.00;88.70
20957;DHT22;10637;47.970;7.830;2023-07-13T14:08:44;29.10;87.60
20957;DHT22;10637;47.970;7.830;2023-07-13T14:13:52;29.00;91.60
20957;DHT22;10637;47.970;7.830;2023-07-13T14:18:55;29.60;90.30
20957;DHT22;10637;47.970;7.830;2023-07-13T14:24:00;29.50;91.00
20957;DHT22;10637;47.970;7.830;2023-07-13T14:29:01;29.60;87.40
20957;DHT22;10637;47.970;7.830;2023-07-13T14:34:03;29.50;88.20
20957;DHT22;10637;47.970;7.830;2023-07-13T14:39:12;29.40;89.50
20957;DHT22;10637;47.970;7.830;2023-07-13T14:44:16;29.80;91.60
20957;DHT22;10637;47.970;7.830;2023-07-13T14:54:23;29.60;90.10
20957;DHT22;10637;47.970;7.830;2023-07-13T14:59:25;29.20;90.70
20957;DHT22;10637;47.970;7.830;2023-07-13T15:04:27;29.00;91.00
20957;DHT22;10637;47.970;7.830;2023-07-13T15:09:29;29.00;90.60
20957;DHT22;10637;47.970;7.830;2023-07-13T15:14:31;28.90;90.30
20957;DHT22;10637;47.970;7.830;2023-07-13T15:19:34;29.00;90.20
20957;DHT22;10637;47.970;7.830;2023-07-13T15:24:36;29.50;91.00
20957;DHT22;10637;47.970;7.830;2023-07-13T15:29:39;30.40;91.00
20957;DHT22;10637;47.970;7.830;2023-07-13T15:34:44;30.80;90.10
20957;DHT22;10637;47.970;7.830;2023-07-13T15:39:46;31.10;90.20
20957;DHT22;10637;47.970;7.830;2023-07-13T15:44:48;31.50;89.20
20957;DHT22;10637;47.970;7.830;2023-07-13T15:49:49;31.60;82.70
20957;DHT22;10637;47.970;7.830;2023-07-13T15:55:00;30.90;86.60
20957;DHT22;10637;47.970;7.830;2023-07-13T16:00:03;30.70;85.60
20957;DHT22;10637;47.970;7.830;2023-07-13T16:05:07;30.30;86.10
20957;DHT22;10637;47.970;7.830;2023-07-13T16:10:14;30.50;90.30
20957;DHT22;10637;47.970;7.830;2023-07-13T16:15:19;29.80;82.80
20957;DHT22;10637;47.970;7.830;2023-07-13T16:20:21;29.60;89.00
20957;DHT22;10637;47.970;7.830;2023-07-13T16:25:25;29.30;86.90
20957;DHT22;10637;47.970;7.830;2023-07-13T16:30:29;29.10;88.10
20957;DHT22;10637;47.970;7.830;2023-07-13T16:35:37;29.00;89.40
20957;DHT22;10637;47.970;7.830;2023-07-13T16:40:39;29.00;88.30
20957;DHT22;10637;47.970;7.830;2023-07-13T16:45:41;29.40;86.70
20957;DHT22;10637;47.970;7.830;2023-07-13T16:50:52;29.50;89.80
20957;DHT22;10637;47.970;7.830;2023-07-13T16:55:55;29.60;87.50
20957;DHT22;10637;47.970;7.830;2023-07-13T17:00:59;29.40;86.60
20957;DHT22;10637;47.970;7.830;2023-07-13T17:06:24;29.50;88.80
20957;DHT22;10637;47.970;7.830;2023-07-13T17:11:26;29.80;90.20
20957;DHT22;10637;47.970;7.830;2023-07-13T17:16:31;30.20;88.60
20957;DHT22;10637;47.970;7.830;2023-07-13T17:21:33;30.20;84.10
20957;DHT22;10637;47.970;7.830;2023-07-13T17:26:35;30.10;82.90
20957;DHT22;10637;47.970;7.830;2023-07-13T17:31:37;29.90;85.00
20957;DHT22;10637;47.970;7.830;2023-07-13T17:36:40;29.60;82.50
20957;DHT22;10637;47.970;7.830;2023-07-13T17:41:42;29.10;84.00
20957;DHT22;10637;47.970;7.830;2023-07-13T17:46:45;28.70;84.50
20957;DHT22;10637;47.970;7.830;2023-07-13T17:51:49;28.50;85.90
20957;DHT22;10637;47.970;7.830;2023-07-13T17:56:54;28.40;85.90
20957;DHT22;10637;47.970;7.830;2023-07-13T18:01:56;28.00;86.40
20957;DHT22;10637;47.970;7.830;2023-07-13T18:06:58;28.00;84.80
20957;DHT22;10637;47.970;7.830;2023-07-13T18:12:09;27.80;84.90
20957;DHT22;10637;47.970;7.830;2023-07-13T18:17:13;27.70;87.00
20957;DHT22;10637;47.970;7.830;2023-07-13T18:22:17;27.70;85.10
20957;DHT22;10637;47.970;7.830;2023-07-13T18:27:19;27.50;87.70
20957;DHT22;10637;47.970;7.830;2023-07-13T18:32:21;27.00;91.10
20957;DHT22;10637;47.970;7.830;2023-07-13T18:37:23;26.80;91.70
20957;DHT22;10637;47.970;7.830;2023-07-13T18:42:26;26.70;92.50
20957;DHT22;10637;47.970;7.830;2023-07-13T18:47:28;26.60;92.70
20957;DHT22;10637;47.970;7.830;2023-07-13T18:52:35;26.40;92.20
20957;DHT22;10637;47.970;7.830;2023-07-13T18:57:37;26.30;93.80
20957;DHT22;10637;47.970;7.830;2023-07-13T19:02:39;25.80;95.60
20957;DHT22;10637;47.970;7.830;2023-07-13T19:07:42;25.60;96.00
20957;DHT22;10637;47.970;7.830;2023-07-13T19:12:46;24.90;97.40
20957;DHT22;10637;47.970;7.830;2023-07-13T19:17:50;25.00;97.60
20957;DHT22;10637;47.970;7.830;2023-07-13T19:23:02;25.20;97.60
20957;DHT22;10637;47.970;7.830;2023-07-13T19:33:35;24.70;97.60
20957;DHT22;10637;47.970;7.830;2023-07-13T19:38:37;24.50;98.80
20957;DHT22;10637;47.970;7.830;2023-07-13T19:43:39;24.00;98.60
20957;DHT22;10637;47.970;7.830;2023-07-13T19:48:41;24.00;98.70
20957;DHT22;10637;47.970;7.830;2023-07-13T19:53:43;24.30;98.70
20957;DHT22;10637;47.970;7.830;2023-07-13T19:58:45;24.10;99.40
20957;DHT22;10637;47.970;7.830;2023-07-13T20:03:49;23.90;99.30
20957;DHT22;10637;47.970;7.830;2023-07-13T20:08:51;23.30;99.90
20957;DHT22;10637;47.970;7.830;2023-07-13T20:13:53;23.40;99.90
20957;DHT22;10637;47.970;7.830;2023-07-13T20:18:55;23.30;99.90
20957;DHT22;10637;47.970;7.830;2023-07-13T20:23:57;22.90;99.90
20957;DHT22;10637;47.970;7.830;2023-07-13T20:28:58;22.70;99.90
20957;DHT22;10637;47.970;7.830;2023-07-13T20:34:02;22.70;99.90
20957;DHT22;10637;47.970;7.830;2023-07-13T20:39:04;22.70;99.90
20957;DHT22;10637;47.970;7.830;2023-07-13T20:44:07;22.80;99.90
20957;DHT22;10637;47.970;7.830;2023-07-13T20:49:10;22.30;99.90
20957;DHT22;10637;47.970;7.830;2023-07-13T20:54:13;21.70;99.90
20957;DHT22;10637;47.970;7.830;2023-07-13T20:59:15;21.40;99.90
20957;DHT22;10637;47.970;7.830;2023-07-13T21:04:17;21.50;99.90
20957;DHT22;10637;47.970;7.830;2023-07-13T21:09:20;22.10;99.90
20957;DHT22;10637;47.970;7.830;2023-07-13T21:14:22;22.10;99.90
20957;DHT22;10637;47.970;7.830;2023-07-13T21:19:26;22.00;99.90
20957;DHT22;10637;47.970;7.830;2023-07-13T21:24:28;21.90;99.90
20957;DHT22;10637;47.970;7.830;2023-07-13T21:29:29;21.40;99.90
20957;DHT22;10637;47.970;7.830;2023-07-13T21:34:31;21.10;99.90
20957;DHT22;10637;47.970;7.830;2023-07-13T21:39:33;21.30;99.90
20957;DHT22;10637;47.970;7.830;2023-07-13T21:44:35;20.80;99.90
20957;DHT22;10637;47.970;7.830;2023-07-13T21:49:37;20.90;99.90
20957;DHT22;10637;47.970;7.830;2023-07-13T21:54:38;20.50;99.90
20957;DHT22;10637;47.970;7.830;2023-07-13T21:59:41;20.30;99.90
20957;DHT22;10637;47.970;7.830;2023-07-13T22:04:42;19.80;99.90
20957;DHT22;10637;47.970;7.830;2023-07-13T22:09:46;19.90;99.90
20957;DHT22;10637;47.970;7.830;2023-07-13T22:14:48;19.80;99.90
20957;DHT22;10637;47.970;7.830;2023-07-13T22:19:49;19.60;99.90
20957;DHT22;10637;47.970;7.830;2023-07-13T22:24:53;19.40;99.90
20957;DHT22;10637;47.970;7.830;2023-07-13T22:29:55;19.40;99.90
20957;DHT22;10637;47.970;7.830;2023-07-13T22:34:57;19.70;99.90
20957;DHT22;10637;47.970;7.830;2023-07-13T22:40:00;20.10;99.90
20957;DHT22;10637;47.970;7.830;2023-07-13T22:45:02;20.20;99.90
20957;DHT22;10637;47.970;7.830;2023-07-13T22:50:13;20.30;99.90
20957;DHT22;10637;47.970;7.830;2023-07-13T22:55:15;20.00;99.90
20957;DHT22;10637;47.970;7.830;2023-07-13T23:00:21;19.50;99.90
20957;DHT22;10637;47.970;7.830;2023-07-13T23:05:23;19.50;99.90
20957;DHT22;10637;47.970;7.830;2023-07-13T23:10:26;19.60;99.90
20957;DHT22;10637;47.970;7.830;2023-07-13T23:15:31;19.40;99.90
20957;DHT22;10637;47.970;7.830;2023-07-13T23:20:36;19.30;99.90
20957;DHT22;10637;47.970;7.830;2023-07-13T23:25:38;19.50;99.90
20957;DHT22;10637;47.970;7.830;2023-07-13T23:30:45;19.60;99.90
20957;DHT22;10637;47.970;7.830;2023-07-13T23:35:49;19.80;99.90
20957;DHT22;10637;47.970;7.830;2023-07-13T23:40:52;19.60;99.90
20957;DHT22;10637;47.970;7.830;2023-07-13T23:45:54;20.00;99.90
20957;DHT22;10637;47.970;7.830;2023-07-13T23:50:55;20.10;99.90
20957;DHT22;10637;47.970;7.830;2023-07-13T23:55:57;20.00;99.90
